Time;durP1;ratioP1;P1;durP2;ratioP2;P2;SDS_P1;SDS_P2;PMS_P1;PMS_P2;Temp;Humidity;BMP_temperature;BMP_pressure;BME280_temperature;BME280_humidity;BME280_pressure;Samples;Min_cycle;Max_cycle;Signal;HPM_P1;HPM_P2
2022/04/21 00:00:50;;;;;;;8.07;4.13;;;;;;;9.97;91.13;95438.94;5100449;28;20197;-78
2022/04/21 00:03:19;;;;;;;6.53;3.53;;;;;;;9.94;91.73;95434.88;5093757;28;20217;-78
2022/04/21 00:05:46;;;;;;;5.20;4.00;;;;;;;9.91;91.41;95435.34;5094687;28;20215;-78
2022/04/21 00:08:16;;;;;;;6.67;3.80;;;;;;;9.90;91.21;95428.31;5094735;28;20215;-78
2022/04/21 00:10:44;;;;;;;6.07;4.00;;;;;;;9.91;91.23;95434.53;5102925;28;20211;-78
2022/04/21 00:13:11;;;;;;;4.23;3.67;;;;;;;9.93;91.42;95432.41;5098665;28;20197;-79
2022/04/21 00:15:39;;;;;;;4.33;3.70;;;;;;;9.91;90.38;95431.84;5096303;28;20213;-78
2022/04/21 00:18:06;;;;;;;4.47;3.90;;;;;;;9.78;91.15;95431.09;5088899;28;20252;-79
2022/04/21 00:20:35;;;;;;;6.07;4.20;;;;;;;9.70;92.53;95433.41;5095725;27;20204;-79
2022/04/21 00:25:47;;;;;;;4.40;3.70;;;;;;;9.49;94.08;95435.81;5098129;28;20207;-78
2022/04/21 00:28:14;;;;;;;5.13;4.00;;;;;;;9.45;94.83;95423.06;5103242;28;20196;-78
2022/04/21 00:30:41;;;;;;;4.77;4.03;;;;;;;9.45;94.28;95421.19;5099659;28;20233;-78
2022/04/21 00:33:08;;;;;;;6.73;4.07;;;;;;;9.47;94.02;95418.25;5103960;28;20197;-79
2022/04/21 00:35:37;;;;;;;4.50;3.93;;;;;;;9.40;94.73;95414.91;5101338;27;20212;-78
2022/04/21 00:38:04;;;;;;;6.27;4.20;;;;;;;9.33;95.31;95422.34;5099382;28;20224;-79
2022/04/21 00:40:32;;;;;;;4.13;3.70;;;;;;;9.34;95.28;95419.41;5094423;28;20231;-79
2022/04/21 00:43:00;;;;;;;6.07;4.20;;;;;;;9.21;95.17;95411.63;5102988;28;20263;-78
2022/04/21 00:45:29;;;;;;;4.00;3.63;;;;;;;9.21;95.80;95408.94;5098912;28;20266;-79
2022/04/21 00:47:58;;;;;;;5.77;3.70;;;;;;;9.23;95.80;95406.81;5100919;28;20201;-79
2022/04/21 00:50:28;;;;;;;5.50;3.97;;;;;;;9.18;95.83;95398.69;5095852;28;20229;-78
2022/04/21 00:52:59;;;;;;;5.93;4.00;;;;;;;9.19;95.97;95404.84;5097153;28;20188;-79
2022/04/21 00:55:26;;;;;;;5.10;4.13;;;;;;;9.15;96.82;95395.66;5095514;28;20205;-79
2022/04/21 00:57:55;;;;;;;5.00;3.87;;;;;;;9.16;96.36;95394.59;5098801;28;20212;-78
2022/04/21 01:00:22;;;;;;;7.00;4.07;;;;;;;9.19;95.87;95389.50;5098506;28;20192;-78
2022/04/21 01:02:52;;;;;;;5.80;3.80;;;;;;;9.20;95.39;95384.94;5100785;28;20207;-78
2022/04/21 01:05:29;;;;;;;5.70;4.00;;;;;;;9.26;95.19;95390.19;5099717;28;20216;-78
2022/04/21 01:07:59;;;;;;;4.20;3.70;;;;;;;9.20;95.25;95393.03;5095545;28;20211;-78
2022/04/21 01:10:28;;;;;;;4.07;3.63;;;;;;;9.19;95.31;95386.81;5095715;28;20350;-78
2022/04/21 01:12:55;;;;;;;4.17;3.77;;;;;;;9.20;96.36;95396.53;5097623;28;20193;-78
2022/04/21 01:15:23;;;;;;;7.97;3.97;;;;;;;9.24;96.58;95389.59;5092371;28;20209;-78
2022/04/21 01:17:52;;;;;;;3.80;3.37;;;;;;;9.24;96.75;95388.78;5096816;28;20216;-78
2022/04/21 01:20:21;;;;;;;5.53;3.70;;;;;;;9.29;96.55;95386.16;5110812;28;20232;-78
2022/04/21 01:22:48;;;;;;;7.80;4.03;;;;;;;9.33;96.40;95384.63;5102325;28;20219;-78
2022/04/21 01:25:15;;;;;;;3.97;3.40;;;;;;;9.39;94.76;95384.44;5112487;27;20334;-79
2022/04/21 01:27:44;;;;;;;5.03;3.53;;;;;;;9.34;95.26;95386.25;5101903;28;20293;-78
2022/04/21 01:30:13;;;;;;;4.10;3.37;;;;;;;9.31;96.10;95382.16;5099763;28;20257;-78
2022/04/21 01:32:43;;;;;;;5.87;4.13;;;;;;;9.31;95.01;95370.56;5097058;28;20192;-78
2022/04/21 01:35:11;;;;;;;5.97;4.23;;;;;;;9.20;95.30;95376.84;5097982;28;20208;-78
2022/04/21 01:43:17;;;;;;;5.50;3.63;;;;;;;9.12;96.34;95372.69;5100728;28;20208;-78
2022/04/21 01:45:45;;;;;;;5.30;4.07;;;;;;;9.11;97.63;95369.19;5102338;28;20207;-79
2022/04/21 01:48:12;;;;;;;4.10;3.57;;;;;;;9.16;96.67;95367.66;5101551;28;20204;-78
2022/04/21 01:50:39;;;;;;;4.30;3.77;;;;;;;9.09;97.03;95371.34;5103776;28;20218;-78
2022/04/21 01:53:08;;;;;;;4.70;3.53;;;;;;;9.08;96.64;95364.31;5101859;28;20212;-79
2022/04/21 01:55:35;;;;;;;5.77;3.93;;;;;;;8.99;97.22;95368.47;5092179;28;20211;-78
2022/04/21 01:58:02;;;;;;;4.87;3.50;;;;;;;8.95;98.34;95364.63;5089114;28;20234;-79
2022/04/21 02:00:30;;;;;;;5.03;3.90;;;;;;;8.96;98.26;95366.25;5097763;28;20221;-79
2022/04/21 02:02:57;;;;;;;3.80;3.40;;;;;;;8.93;97.78;95353.25;5097255;28;20205;-79
2022/04/21 02:05:24;;;;;;;3.97;3.57;;;;;;;8.99;98.43;95365.78;5094219;28;20197;-78
2022/04/21 02:07:52;;;;;;;5.97;3.43;;;;;;;9.02;98.16;95361.75;5095338;28;20216;-78
2022/04/21 02:10:21;;;;;;;4.60;3.37;;;;;;;8.94;98.22;95354.91;5102603;28;20274;-78
2022/04/21 02:12:49;;;;;;;5.50;3.80;;;;;;;8.90;98.41;95361.84;5100085;28;20208;-79
2022/04/21 02:15:17;;;;;;;5.07;3.90;;;;;;;8.79;98.12;95364.59;5106827;27;20533;-78
2022/04/21 02:17:45;;;;;;;4.67;3.57;;;;;;;8.68;99.37;95356.34;5104361;27;20255;-79
2022/04/21 02:20:15;;;;;;;4.27;3.87;;;;;;;8.60;99.83;95358.63;5098664;28;20224;-79
2022/04/21 02:22:43;;;;;;;6.20;4.27;;;;;;;8.64;100.00;95354.41;5101243;28;20203;-78
2022/04/21 02:25:11;;;;;;;6.27;4.10;;;;;;;8.65;99.98;95354.16;5095266;27;20216;-79
2022/04/21 02:27:42;;;;;;;7.77;4.90;;;;;;;8.59;99.85;95362.38;5099171;28;20197;-78
2022/04/21 02:30:10;;;;;;;9.97;4.70;;;;;;;8.52;100.00;95359.00;5104273;28;20236;-79
2022/04/21 02:32:38;;;;;;;6.37;4.73;;;;;;;8.51;100.00;95354.69;5098399;28;20205;-78
2022/04/21 02:35:06;;;;;;;5.30;4.47;;;;;;;8.57;100.00;95359.13;5105320;28;20197;-79
2022/04/21 02:37:36;;;;;;;4.00;3.60;;;;;;;8.62;100.00;95359.19;5106295;27;20199;-79
2022/04/21 02:40:03;;;;;;;5.33;4.17;;;;;;;8.61;100.00;95346.78;5104745;27;20220;-78
2022/04/21 02:42:30;;;;;;;4.97;4.07;;;;;;;8.66;100.00;95349.59;5104555;28;20204;-78
2022/04/21 02:44:59;;;;;;;4.90;4.40;;;;;;;8.64;100.00;95349.84;5093479;27;20215;-78
2022/04/21 02:47:26;;;;;;;6.17;3.83;;;;;;;8.63;100.00;95352.75;5104980;28;20206;-79
2022/04/21 02:49:54;;;;;;;4.57;3.90;;;;;;;8.66;100.00;95353.09;5113382;27;20220;-78
2022/04/21 02:52:22;;;;;;;7.07;4.33;;;;;;;8.62;100.00;95356.50;5107891;27;20198;-79
2022/04/21 02:57:34;;;;;;;4.93;3.90;;;;;;;8.50;99.90;95345.00;5096836;27;20211;-78
2022/04/21 03:00:06;;;;;;;4.90;4.37;;;;;;;8.30;100.00;95343.53;5102472;27;20220;-78
2022/04/21 03:02:34;;;;;;;4.90;4.30;;;;;;;8.15;100.00;95345.94;5117906;27;20219;-78
2022/04/21 03:05:01;;;;;;;6.07;4.53;;;;;;;8.08;100.00;95339.84;5101367;28;20215;-78
2022/04/21 03:07:28;;;;;;;5.97;4.73;;;;;;;8.15;100.00;95340.56;5104187;28;20261;-78
2022/04/21 03:09:55;;;;;;;5.10;4.23;;;;;;;8.18;100.00;95340.06;5097894;27;20203;-78
2022/04/21 03:12:23;;;;;;;5.23;4.10;;;;;;;8.14;100.00;95335.41;5104365;28;20203;-78
2022/04/21 03:14:50;;;;;;;5.70;4.40;;;;;;;8.17;100.00;95332.22;5121116;27;20200;-78
2022/04/21 03:17:19;;;;;;;6.10;4.07;;;;;;;8.27;100.00;95341.31;5096082;28;20253;-78
2022/04/21 03:19:46;;;;;;;4.37;3.97;;;;;;;8.27;100.00;95335.94;5091829;28;20224;-78
2022/04/21 03:25:00;;;;;;;9.87;4.73;;;;;;;8.23;100.00;95348.25;5103746;28;20260;-78
2022/04/21 03:27:28;;;;;;;5.47;4.40;;;;;;;8.10;100.00;95345.81;5101462;28;20209;-78
2022/04/21 03:29:56;;;;;;;4.93;3.80;;;;;;;8.09;100.00;95351.44;5091249;28;20212;-78
2022/04/21 03:32:25;;;;;;;6.97;4.07;;;;;;;8.04;100.00;95343.28;5103836;28;20224;-78
2022/04/21 03:34:53;;;;;;;7.90;4.80;;;;;;;7.89;100.00;95349.16;5102553;28;20282;-78
2022/04/21 03:37:20;;;;;;;4.97;4.30;;;;;;;7.72;100.00;95342.91;5099600;27;20214;-78
2022/04/21 03:39:47;;;;;;;7.63;4.27;;;;;;;7.64;100.00;95354.00;5098477;28;20268;-78
2022/04/21 03:42:19;;;;;;;7.77;4.77;;;;;;;7.55;100.00;95342.81;5098997;28;20204;-78
2022/04/21 03:44:46;;;;;;;6.73;4.53;;;;;;;7.51;100.00;95338.94;5091390;28;20197;-78
2022/04/21 03:47:13;;;;;;;6.57;4.80;;;;;;;7.53;100.00;95336.84;5090184;28;20203;-78
2022/04/21 03:49:42;;;;;;;9.67;4.37;;;;;;;7.56;100.00;95336.38;5097786;27;20271;-78
2022/04/21 03:52:10;;;;;;;4.87;4.40;;;;;;;7.60;100.00;95338.34;5099588;28;20204;-78
2022/04/21 03:54:37;;;;;;;6.57;4.27;;;;;;;7.52;100.00;95341.41;5104457;28;20519;-78
2022/04/21 03:57:05;;;;;;;4.30;3.90;;;;;;;7.59;100.00;95347.47;5104673;28;20205;-78
2022/04/21 03:59:32;;;;;;;6.07;4.40;;;;;;;7.65;100.00;95352.97;5098112;28;20221;-78
2022/04/21 04:02:02;;;;;;;5.73;4.20;;;;;;;7.63;100.00;95347.00;5102479;28;20200;-78
2022/04/21 04:04:30;;;;;;;6.17;4.10;;;;;;;7.64;100.00;95351.31;5097954;28;20204;-78
2022/04/21 04:12:30;;;;;;;5.77;4.43;;;;;;;7.47;100.00;95346.69;5103498;28;20215;-78
2022/04/21 04:14:58;;;;;;;5.90;4.97;;;;;;;7.41;100.00;95339.53;5094375;28;20215;-78
2022/04/21 04:17:25;;;;;;;10.83;5.87;;;;;;;7.36;100.00;95344.81;5097044;28;20200;-78
2022/04/21 04:19:52;;;;;;;7.77;5.10;;;;;;;7.28;100.00;95337.09;5103128;27;20216;-78
2022/04/21 04:22:21;;;;;;;7.13;4.70;;;;;;;7.34;100.00;95338.03;5098950;28;20219;-78
2022/04/21 04:24:50;;;;;;;6.13;4.80;;;;;;;7.45;100.00;95345.25;5099543;28;20314;-78
2022/04/21 04:27:17;;;;;;;6.83;5.20;;;;;;;7.41;100.00;95346.78;5094399;28;20205;-78
2022/04/21 04:29:44;;;;;;;7.07;5.30;;;;;;;7.33;100.00;95349.81;5094045;28;20201;-78
2022/04/21 04:32:14;;;;;;;7.80;5.33;;;;;;;7.28;100.00;95339.78;5104117;28;20211;-78
2022/04/21 04:34:41;;;;;;;8.10;4.73;;;;;;;7.29;100.00;95351.34;5102428;27;20208;-78
2022/04/21 04:37:08;;;;;;;5.77;4.70;;;;;;;7.24;100.00;95343.97;5097401;28;20201;-78
2022/04/21 04:39:36;;;;;;;6.77;5.10;;;;;;;7.25;100.00;95348.31;5098752;28;20251;-78
2022/04/21 04:42:20;;;;;;;11.37;5.03;;;;;;;7.25;100.00;95342.94;5095939;28;20200;-78
2022/04/21 04:44:49;;;;;;;17.87;7.20;;;;;;;7.27;100.00;95338.16;5118605;27;20212;-78
2022/04/21 04:47:15;;;;;;;9.53;5.93;;;;;;;7.25;100.00;95337.56;5100418;28;20214;-78
2022/04/21 04:49:43;;;;;;;6.63;5.20;;;;;;;7.23;100.00;95340.47;5095437;28;20235;-78
2022/04/21 04:52:10;;;;;;;8.53;6.37;;;;;;;7.28;100.00;95341.66;5097728;28;20204;-78
2022/04/21 04:54:39;;;;;;;11.00;5.73;;;;;;;7.35;100.00;95339.66;5102584;28;20218;-78
2022/04/21 04:57:06;;;;;;;7.30;5.70;;;;;;;7.34;100.00;95338.03;5099709;28;20196;-78
2022/04/21 04:59:33;;;;;;;8.10;5.77;;;;;;;7.19;100.00;95328.59;5101482;28;20735;-78
2022/04/21 05:02:01;;;;;;;9.10;5.50;;;;;;;7.09;100.00;95325.66;5121230;27;20196;-78
2022/04/21 05:04:28;;;;;;;12.47;5.83;;;;;;;7.17;100.00;95337.91;5093333;28;20263;-78
2022/04/21 05:06:57;;;;;;;9.60;5.03;;;;;;;7.24;100.00;95341.28;5100783;28;20196;-78
2022/04/21 05:09:25;;;;;;;8.17;5.27;;;;;;;7.29;100.00;95343.28;5098337;28;20213;-78
2022/04/21 05:11:55;;;;;;;8.33;5.37;;;;;;;7.35;100.00;95339.66;5098394;28;20201;-78
2022/04/21 05:14:23;;;;;;;7.20;5.33;;;;;;;7.41;100.00;95334.16;5096520;28;20273;-78
2022/04/21 05:16:51;;;;;;;9.53;5.93;;;;;;;7.49;100.00;95338.34;5091058;28;20205;-78
2022/04/21 05:19:20;;;;;;;10.37;6.70;;;;;;;7.57;100.00;95327.28;5108715;28;20288;-78
2022/04/21 05:21:49;;;;;;;13.63;6.30;;;;;;;7.66;100.00;95331.22;5102117;28;20212;-79
2022/04/21 05:24:17;;;;;;;11.20;5.40;;;;;;;7.66;100.00;95338.44;5108161;28;20232;-78
2022/04/21 05:26:46;;;;;;;12.93;5.57;;;;;;;7.55;100.00;95335.56;5097282;28;20215;-78
2022/04/21 05:32:01;;;;;;;16.63;5.80;;;;;;;7.52;100.00;95341.41;5099542;28;20207;-78
2022/04/21 05:34:30;;;;;;;7.83;5.70;;;;;;;7.57;100.00;95344.19;5099700;28;20212;-78
2022/04/21 05:36:59;;;;;;;6.60;5.77;;;;;;;7.64;100.00;95327.16;5093384;28;20214;-78
2022/04/21 05:39:27;;;;;;;8.50;6.03;;;;;;;7.67;100.00;95326.66;5105997;28;20216;-78
2022/04/21 05:41:56;;;;;;;5.87;5.20;;;;;;;7.77;100.00;95332.25;5106779;28;20205;-78
2022/04/21 05:44:27;;;;;;;7.97;6.07;;;;;;;7.72;100.00;95332.97;5093171;28;20192;-78
2022/04/21 05:46:54;;;;;;;9.57;5.90;;;;;;;7.62;100.00;95326.56;5087280;28;20245;-77
2022/04/21 05:49:22;;;;;;;9.23;5.27;;;;;;;7.63;100.00;95326.31;5103568;27;20246;-77
2022/04/21 05:51:50;;;;;;;5.90;4.97;;;;;;;7.71;100.00;95322.44;5096280;28;20216;-78
2022/04/21 05:54:17;;;;;;;6.67;4.93;;;;;;;7.79;100.00;95322.06;5106551;28;20215;-78
2022/04/21 05:56:45;;;;;;;9.57;5.50;;;;;;;7.77;100.00;95321.50;5106003;27;20257;-78
2022/04/21 05:59:12;;;;;;;12.43;6.40;;;;;;;7.74;100.00;95322.00;5098247;27;20203;-78
2022/04/21 06:01:40;;;;;;;6.03;5.03;;;;;;;7.76;100.00;95318.00;5101634;28;20234;-77
2022/04/21 06:04:07;;;;;;;7.73;5.77;;;;;;;7.74;100.00;95313.94;5094121;28;20343;-78
2022/04/21 06:06:35;;;;;;;6.23;5.53;;;;;;;7.72;100.00;95321.41;5096586;28;20244;-78
2022/04/21 06:09:02;;;;;;;7.97;6.07;;;;;;;7.68;100.00;95320.22;5107270;27;20200;-78
2022/04/21 06:11:32;;;;;;;11.87;5.73;;;;;;;7.63;100.00;95312.06;5102270;28;20221;-78
2022/04/21 06:13:59;;;;;;;13.13;6.20;;;;;;;7.74;100.00;95312.03;5095515;27;20228;-78
2022/04/21 06:16:26;;;;;;;7.37;5.63;;;;;;;7.77;100.00;95318.81;5090997;28;20212;-78
2022/04/21 06:18:54;;;;;;;12.57;6.60;;;;;;;7.82;100.00;95313.56;5100327;27;20204;-78
2022/04/21 06:21:21;;;;;;;8.50;5.80;;;;;;;7.70;100.00;95310.88;5107045;27;20254;-78
2022/04/21 06:23:48;;;;;;;9.80;6.27;;;;;;;7.69;100.00;95308.44;5096995;27;20291;-78
2022/04/21 06:26:16;;;;;;;11.80;6.90;;;;;;;7.59;100.00;95311.72;5105282;28;20287;-78
2022/04/21 06:28:43;;;;;;;9.20;7.10;;;;;;;7.42;100.00;95302.75;5108834;28;20208;-78
2022/04/21 06:31:11;;;;;;;11.43;7.03;;;;;;;7.51;100.00;95302.16;5096990;28;20288;-78
2022/04/21 06:33:38;;;;;;;11.03;6.47;;;;;;;7.57;100.00;95300.41;5106378;28;20383;-78
2022/04/21 06:36:07;;;;;;;10.33;6.97;;;;;;;7.56;100.00;95296.91;5105687;28;20208;-78
2022/04/21 06:38:35;;;;;;;9.23;6.97;;;;;;;7.60;100.00;95298.06;5096155;27;20242;-78
2022/04/21 06:41:03;;;;;;;11.43;6.27;;;;;;;7.58;100.00;95296.66;5101015;28;20236;-78
2022/04/21 06:48:59;;;;;;;11.87;6.97;;;;;;;7.69;100.00;95303.88;5092743;28;20236;-78
2022/04/21 06:51:28;;;;;;;9.77;6.23;;;;;;;7.73;100.00;95304.22;5106425;28;20203;-78
2022/04/21 06:53:55;;;;;;;12.50;7.23;;;;;;;7.77;100.00;95302.69;5100214;28;20197;-78
2022/04/21 06:56:23;;;;;;;10.37;6.43;;;;;;;7.82;100.00;95292.06;5094997;28;20196;-78
2022/04/21 06:58:50;;;;;;;9.90;6.20;;;;;;;7.92;100.00;95297.59;5096909;28;20208;-78
2022/04/21 07:01:17;;;;;;;7.00;5.77;;;;;;;8.02;100.00;95297.00;5101690;28;20228;-78
2022/04/21 07:03:45;;;;;;;8.83;5.73;;;;;;;8.14;100.00;95298.59;5099180;28;20208;-78
2022/04/21 07:06:13;;;;;;;7.07;5.73;;;;;;;8.19;100.00;95297.84;5092957;28;20213;-78
2022/04/21 07:08:41;;;;;;;7.63;5.77;;;;;;;8.16;100.00;95288.41;5089363;28;20196;-78
2022/04/21 07:11:08;;;;;;;11.00;7.07;;;;;;;8.14;100.00;95281.63;5090500;28;20200;-78
2022/04/21 07:13:35;;;;;;;11.60;6.33;;;;;;;8.13;100.00;95285.38;5104467;27;20204;-78
2022/04/21 07:16:02;;;;;;;7.13;6.03;;;;;;;8.05;100.00;95273.16;5096096;28;20196;-78
2022/04/21 07:18:29;;;;;;;12.33;6.13;;;;;;;8.10;100.00;95270.53;5104041;27;20208;-78
2022/04/21 07:20:57;;;;;;;11.47;6.27;;;;;;;8.16;100.00;95261.53;5104296;27;20220;-78
2022/04/21 07:23:24;;;;;;;6.83;5.70;;;;;;;8.30;100.00;95257.47;5103731;28;20224;-78
2022/04/21 07:25:53;;;;;;;10.60;6.00;;;;;;;8.41;100.00;95263.06;5102323;27;20208;-78
2022/04/21 07:28:20;;;;;;;11.30;6.63;;;;;;;8.35;100.00;95251.38;5102791;28;20273;-78
2022/04/21 07:30:47;;;;;;;12.47;6.33;;;;;;;8.42;100.00;95249.34;5099412;28;20207;-78
2022/04/21 07:33:17;;;;;;;7.73;5.90;;;;;;;8.52;100.00;95249.53;5097570;28;20212;-78
2022/04/21 07:35:45;;;;;;;6.50;5.60;;;;;;;8.60;100.00;95249.13;5087870;28;20303;-78
2022/04/21 07:38:12;;;;;;;6.33;5.33;;;;;;;8.65;100.00;95248.41;5102786;28;20215;-78
2022/04/21 07:40:39;;;;;;;7.03;6.30;;;;;;;8.69;100.00;95244.13;5098450;28;20214;-78
2022/04/21 07:43:09;;;;;;;8.13;5.57;;;;;;;8.69;100.00;95234.19;5092343;28;20207;-78
2022/04/21 07:45:38;;;;;;;8.00;6.33;;;;;;;8.77;100.00;95241.03;5098685;28;20291;-78
2022/04/21 07:48:05;;;;;;;7.00;6.30;;;;;;;8.98;100.00;95236.78;5091122;27;20221;-78
2022/04/21 07:50:32;;;;;;;7.47;5.90;;;;;;;9.44;100.00;95232.84;5095301;28;20204;-78
2022/04/21 07:55:50;;;;;;;8.83;6.00;;;;;;;10.46;94.97;95222.09;5095885;27;20213;-78
2022/04/21 07:58:18;;;;;;;9.53;6.30;;;;;;;10.81;90.82;95220.75;5115932;27;20230;-77
2022/04/21 08:00:45;;;;;;;10.43;7.00;;;;;;;11.08;88.54;95221.47;5104442;28;20223;-78
2022/04/21 08:03:16;;;;;;;10.40;7.20;;;;;;;11.28;86.42;95213.50;5101430;28;20203;-78
2022/04/21 08:05:45;;;;;;;8.83;6.57;;;;;;;11.59;84.27;95225.28;5096864;28;20212;-78
2022/04/21 08:08:12;;;;;;;6.53;5.83;;;;;;;11.84;81.26;95219.19;5094709;28;20204;-79
2022/04/21 08:10:39;;;;;;;8.40;6.70;;;;;;;11.99;77.85;95224.63;5101057;28;20204;-79
2022/04/21 08:13:06;;;;;;;9.47;6.67;;;;;;;11.94;78.61;95227.34;5118880;27;20215;-79
2022/04/21 08:15:38;;;;;;;7.47;6.77;;;;;;;12.10;78.10;95217.34;5096232;28;20287;-78
2022/04/21 08:18:07;;;;;;;8.47;6.50;;;;;;;12.37;78.00;95220.66;5104934;28;20218;-78
2022/04/21 08:20:35;;;;;;;9.40;7.30;;;;;;;12.54;82.28;95220.41;5102152;28;20243;-78
2022/04/21 08:23:03;;;;;;;9.17;7.63;;;;;;;12.60;82.36;95229.34;5090945;28;20244;-78
2022/04/21 08:33:46;;;;;;;13.07;7.57;;;;;;;12.82;78.20;95216.38;5094830;28;20220;-78
2022/04/21 08:36:13;;;;;;;13.30;7.27;;;;;;;12.80;76.80;95213.91;5101788;28;20442;-79
2022/04/21 08:38:40;;;;;;;9.67;7.10;;;;;;;12.81;76.00;95214.72;5118501;27;20207;-78
2022/04/21 08:41:10;;;;;;;8.90;6.77;;;;;;;13.10;75.12;95207.66;5100200;28;20230;-78
2022/04/21 08:43:37;;;;;;;7.93;7.13;;;;;;;13.12;73.38;95215.50;5099995;27;20216;-78
2022/04/21 08:46:05;;;;;;;11.13;7.23;;;;;;;13.30;74.96;95201.41;5095126;28;20207;-79
2022/04/21 08:48:35;;;;;;;8.63;6.93;;;;;;;13.43;72.28;95205.47;5098098;27;20329;-78
2022/04/21 08:51:03;;;;;;;17.10;7.23;;;;;;;13.51;70.66;95204.88;5119391;27;20188;-79
2022/04/21 08:53:32;;;;;;;9.63;7.17;;;;;;;13.53;73.64;95205.41;5102130;28;20215;-79
2022/04/21 08:56:00;;;;;;;12.37;7.20;;;;;;;13.78;69.62;95209.94;5102508;28;20196;-79
2022/04/21 08:58:27;;;;;;;9.30;7.70;;;;;;;13.79;69.38;95198.78;5094992;28;20200;-79
2022/04/21 09:00:57;;;;;;;9.60;7.10;;;;;;;13.79;68.97;95201.50;5098520;27;20208;-79
2022/04/21 09:03:26;;;;;;;9.17;7.20;;;;;;;13.82;66.97;95203.66;5103168;28;20227;-79
2022/04/21 09:05:53;;;;;;;10.97;7.53;;;;;;;13.85;68.87;95203.13;5101870;28;20208;-79
2022/04/21 09:08:22;;;;;;;10.33;7.23;;;;;;;13.90;67.20;95210.41;5104472;28;20215;-79
2022/04/21 09:11:02;;;;;;;10.40;7.47;;;;;;;13.93;66.22;95209.88;5092991;28;20201;-79
2022/04/21 09:13:34;;;;;;;10.97;6.93;;;;;;;14.06;67.66;95206.53;5103347;28;20208;-79
2022/04/21 09:16:02;;;;;;;10.80;7.70;;;;;;;13.94;66.78;95201.47;5101867;28;20201;-79
2022/04/21 09:18:38;;;;;;;8.87;7.10;;;;;;;13.94;65.53;95192.50;5105828;28;20223;-79
2022/04/21 09:21:11;;;;;;;9.10;7.67;;;;;;;14.07;65.58;95200.03;5098837;28;20281;-79
2022/04/21 09:23:38;;;;;;;8.53;7.20;;;;;;;14.15;63.95;95201.34;5106176;28;20246;-79
2022/04/21 09:26:11;;;;;;;12.80;7.83;;;;;;;14.04;64.37;95195.13;5099060;28;20201;-80
2022/04/21 09:28:38;;;;;;;11.70;7.97;;;;;;;14.13;66.25;95198.88;5101690;28;20204;-79
2022/04/21 09:31:09;;;;;;;10.00;7.63;;;;;;;14.15;65.32;95193.19;5103690;27;20205;-79
2022/04/21 09:33:40;;;;;;;12.80;7.97;;;;;;;14.13;65.24;95198.06;5099298;27;20227;-79
2022/04/21 09:36:08;;;;;;;12.67;7.47;;;;;;;14.06;65.73;95192.16;5107165;27;20247;-79
2022/04/21 09:38:36;;;;;;;10.47;8.17;;;;;;;14.06;65.18;95195.69;5105316;27;20204;-79
2022/04/21 09:41:07;;;;;;;10.77;7.93;;;;;;;14.06;64.34;95187.53;5101245;27;20251;-79
2022/04/21 09:43:37;;;;;;;9.83;7.80;;;;;;;14.09;65.08;95195.13;5094375;27;20201;-79
2022/04/21 09:46:15;;;;;;;12.17;7.30;;;;;;;14.23;62.67;95187.97;5091796;28;20204;-79
2022/04/21 09:48:45;;;;;;;9.07;7.83;;;;;;;14.17;63.93;95189.09;5105291;27;20242;-80
2022/04/21 09:51:13;;;;;;;9.57;7.73;;;;;;;14.37;64.40;95194.38;5101277;28;20196;-79
2022/04/21 09:53:51;;;;;;;11.27;7.70;;;;;;;14.51;64.17;95183.75;5101713;28;20200;-79
2022/04/21 09:56:18;;;;;;;8.70;7.80;;;;;;;14.75;62.78;95172.97;5099258;27;20210;-79
2022/04/21 09:58:47;;;;;;;8.80;7.87;;;;;;;14.99;62.00;95170.28;5091506;28;20212;-79
2022/04/21 10:01:14;;;;;;;11.07;8.67;;;;;;;14.88;60.80;95169.59;5101740;28;20221;-80
2022/04/21 10:03:44;;;;;;;8.77;6.93;;;;;;;14.83;60.43;95157.94;5098888;27;20257;-79
2022/04/21 10:06:12;;;;;;;10.87;8.20;;;;;;;14.84;60.70;95162.28;5102007;28;20209;-79
2022/04/21 10:08:42;;;;;;;8.90;8.03;;;;;;;14.86;60.13;95169.06;5100965;28;20196;-79
2022/04/21 10:11:10;;;;;;;8.53;7.63;;;;;;;14.82;62.26;95161.75;5097582;28;20211;-79
2022/04/21 10:13:37;;;;;;;13.63;7.80;;;;;;;14.99;61.06;95157.53;5101030;27;20204;-79
2022/04/21 10:16:07;;;;;;;9.83;8.27;;;;;;;15.35;59.16;95149.00;5097441;28;20200;-80
2022/04/21 10:18:35;;;;;;;9.87;8.03;;;;;;;15.59;58.91;95152.53;5102370;28;20204;-79
2022/04/21 10:21:05;;;;;;;12.13;8.43;;;;;;;15.73;57.45;95148.03;5097258;27;20213;-77
2022/04/21 10:23:35;;;;;;;10.47;7.87;;;;;;;15.72;57.76;95142.88;5102816;28;20227;-77
2022/04/21 10:26:04;;;;;;;10.17;8.30;;;;;;;15.61;56.10;95136.75;5102622;28;20211;-76
2022/04/21 10:28:42;;;;;;;9.17;7.87;;;;;;;15.60;57.37;95140.56;5106320;27;20211;-77
2022/04/21 10:31:31;;;;;;;11.40;8.10;;;;;;;15.79;57.17;95133.25;5100193;27;20251;-77
2022/04/21 10:34:00;;;;;;;10.23;8.13;;;;;;;15.78;54.85;95134.34;5104167;27;20219;-77
2022/04/21 10:36:36;;;;;;;9.10;7.97;;;;;;;15.75;55.98;95132.19;5107830;28;20192;-77
2022/04/21 10:39:22;;;;;;;9.87;8.20;;;;;;;16.00;55.37;95119.34;5121301;27;20204;-77
2022/04/21 10:42:07;;;;;;;11.50;8.43;;;;;;;16.01;56.11;95115.53;5097317;28;20232;-77
2022/04/21 10:44:45;;;;;;;10.70;8.43;;;;;;;16.07;54.78;95111.66;5105223;27;20211;-78
2022/04/21 10:47:35;;;;;;;13.27;7.97;;;;;;;15.96;54.85;95105.53;5107019;27;20212;-77
2022/04/21 10:50:12;;;;;;;8.67;7.60;;;;;;;16.14;54.54;95104.72;5096160;28;20249;-78
2022/04/21 10:58:51;;;;;;;10.87;8.03;;;;;;;16.38;54.78;95074.66;5101098;28;20527;-77
2022/04/21 11:01:23;;;;;;;10.90;8.27;;;;;;;16.47;54.64;95078.31;5100212;28;20230;-78
2022/04/21 11:04:09;;;;;;;10.27;8.77;;;;;;;16.67;54.63;95076.41;5098655;27;20207;-77
2022/04/21 11:06:44;;;;;;;11.43;8.07;;;;;;;16.93;52.71;95074.81;5103373;28;20308;-77
2022/04/21 11:09:40;;;;;;;11.37;9.13;;;;;;;16.93;52.97;95061.97;5106148;27;20195;-77
2022/04/21 11:12:11;;;;;;;9.90;8.37;;;;;;;16.95;51.97;95061.69;5103159;28;20208;-77
2022/04/21 11:14:40;;;;;;;9.23;7.87;;;;;;;17.32;52.09;95055.25;5093794;28;20219;-77
2022/04/21 11:17:08;;;;;;;9.73;8.70;;;;;;;17.31;50.30;95051.69;5105470;27;20234;-78
2022/04/21 11:19:40;;;;;;;14.10;8.43;;;;;;;17.35;49.86;95060.88;5100915;28;20228;-77
2022/04/21 11:22:08;;;;;;;9.07;8.17;;;;;;;17.46;50.29;95055.22;5121749;27;20236;-77
2022/04/21 11:25:03;;;;;;;9.20;8.00;;;;;;;17.49;49.45;95057.34;5106630;27;20228;-80
2022/04/21 11:27:34;;;;;;;10.03;8.57;;;;;;;17.42;48.80;95046.84;5098318;28;20229;-80
2022/04/21 11:30:04;;;;;;;10.27;8.47;;;;;;;17.44;49.75;95046.56;5105641;28;20207;-81
2022/04/21 11:32:31;;;;;;;10.47;9.03;;;;;;;17.57;47.78;95037.53;5121802;27;20203;-83
2022/04/21 11:34:59;;;;;;;9.77;8.43;;;;;;;17.73;48.75;95028.72;5109213;28;20208;-81
2022/04/21 11:37:45;;;;;;;9.93;8.70;;;;;;;17.85;47.40;95035.59;5105437;27;20210;-79
2022/04/21 11:40:34;;;;;;;10.17;8.57;;;;;;;17.80;47.61;95036.50;5096910;27;20259;-79
2022/04/21 11:43:03;;;;;;;11.17;8.77;;;;;;;17.81;48.77;95038.09;5104000;28;20235;-79
2022/04/21 11:45:33;;;;;;;14.17;8.40;;;;;;;17.77;49.28;95034.38;5110047;27;20454;-79
2022/04/21 11:48:01;;;;;;;10.20;8.50;;;;;;;17.87;48.20;95036.88;5104667;28;20224;-79
2022/04/21 11:50:29;;;;;;;11.03;8.90;;;;;;;18.09;49.03;95026.00;5101575;28;20236;-79
2022/04/21 11:52:58;;;;;;;11.33;8.50;;;;;;;18.36;47.50;95021.53;5105562;27;20214;-79
2022/04/21 11:55:28;;;;;;;11.97;8.80;;;;;;;18.28;48.08;95016.81;5095876;28;20213;-79
2022/04/21 11:57:56;;;;;;;10.50;8.97;;;;;;;18.23;46.71;95025.13;5095775;28;20209;-79
2022/04/21 12:08:48;;;;;;;9.73;8.03;;;;;;;18.29;47.64;95007.50;5096445;28;20272;-79
2022/04/21 12:11:19;;;;;;;9.73;8.23;;;;;;;18.35;48.46;95011.72;5097917;28;20287;-79
2022/04/21 12:13:48;;;;;;;12.60;9.03;;;;;;;18.26;46.86;95005.38;5093217;27;20298;-79
2022/04/21 12:16:35;;;;;;;10.03;8.40;;;;;;;18.27;47.17;94999.59;5093058;28;20208;-79
2022/04/21 12:19:11;;;;;;;10.20;9.13;;;;;;;18.03;48.00;94999.13;5100129;28;20200;-79
2022/04/21 12:21:39;;;;;;;11.00;8.67;;;;;;;17.57;47.66;94993.84;5092101;28;20243;-79
2022/04/21 12:24:13;;;;;;;10.47;8.90;;;;;;;17.37;49.23;94993.19;5093193;28;20235;-79
2022/04/21 12:26:48;;;;;;;10.77;9.47;;;;;;;17.43;50.05;94993.09;5103476;28;20210;-79
2022/04/21 12:29:15;;;;;;;9.90;8.90;;;;;;;17.75;49.76;94988.28;5095715;28;20212;-79
2022/04/21 12:31:48;;;;;;;12.70;9.93;;;;;;;17.92;48.76;94976.69;5107853;27;20224;-79
2022/04/21 12:34:22;;;;;;;10.20;8.87;;;;;;;18.33;48.68;94972.94;5092748;28;20231;-79